Time;durP1;ratioP1;P1;durP2;ratioP2;P2;SDS_P1;SDS_P2;PMS_P1;PMS_P2;Temp;Humidity;BMP_temperature;BMP_pressure;BME280_temperature;BME280_humidity;BME280_pressure;Samples;Min_cycle;Max_cycle;Signal;HPM_P1;HPM_P2
2022/11/09 00:02:20;;;;;;;31.52;20.13;;;;;;;9.31;79.09;94003.75;5091386;28;20429;-34
2022/11/09 00:04:45;;;;;;;31.73;21.08;;;;;;;9.33;79.04;94009.47;5091453;28;20028;-34
2022/11/09 00:07:11;;;;;;;32.30;21.08;;;;;;;9.39;79.02;94007.38;5091394;28;20028;-34
2022/11/09 00:09:36;;;;;;;36.38;20.88;;;;;;;9.40;78.71;94008.13;5091383;28;20107;-34
2022/11/09 00:12:03;;;;;;;34.80;20.58;;;;;;;9.42;78.16;94011.81;5091598;28;20553;-34
2022/11/09 00:14:29;;;;;;;31.30;19.23;;;;;;;9.31;77.09;93995.50;5091418;28;20020;-34
2022/11/09 00:16:55;;;;;;;31.30;19.38;;;;;;;9.46;76.86;94006.75;5090901;28;20500;-34
2022/11/09 00:19:21;;;;;;;32.78;19.48;;;;;;;9.45;77.03;94004.50;5091445;28;20023;-34
2022/11/09 00:21:47;;;;;;;44.00;21.27;;;;;;;9.48;77.11;94011.72;5091334;28;20499;-34
2022/11/09 00:24:12;;;;;;;36.05;19.35;;;;;;;9.30;78.03;94012.53;5072880;28;20027;-34
2022/11/09 00:26:38;;;;;;;27.70;18.75;;;;;;;9.37;78.21;94004.41;5090699;28;20492;-34
2022/11/09 00:29:03;;;;;;;32.75;20.27;;;;;;;9.28;78.28;94007.56;5091079;28;20093;-34
2022/11/09 00:31:29;;;;;;;33.10;22.60;;;;;;;9.32;78.75;94004.47;5090934;28;20077;-34
2022/11/09 00:33:55;;;;;;;35.63;22.08;;;;;;;9.39;78.50;93999.09;5090982;28;20392;-34
2022/11/09 00:36:22;;;;;;;33.80;21.88;;;;;;;9.41;78.82;94004.81;5091054;28;20031;-34
2022/11/09 00:38:52;;;;;;;32.22;20.48;;;;;;;9.42;78.97;93994.53;5090764;28;20020;-34
2022/11/09 00:41:18;;;;;;;31.23;19.52;;;;;;;9.48;78.52;93997.94;5090897;28;20024;-34
2022/11/09 00:43:44;;;;;;;39.03;22.05;;;;;;;9.45;78.21;93991.47;5090947;28;20024;-34
2022/11/09 00:46:10;;;;;;;37.42;20.83;;;;;;;9.50;78.63;93995.41;5090335;28;20480;-34
2022/11/09 00:48:35;;;;;;;29.35;20.15;;;;;;;9.37;79.14;93987.09;5090825;28;20031;-34
2022/11/09 00:51:01;;;;;;;30.58;19.02;;;;;;;9.36;79.24;93994.63;5090865;28;20059;-34
2022/11/09 00:53:26;;;;;;;32.15;19.55;;;;;;;9.33;79.23;93992.94;5090518;28;20181;-34
2022/11/09 00:56:00;;;;;;;29.33;19.92;;;;;;;9.19;78.43;93980.41;5090553;28;20028;-34
2022/11/09 00:58:27;;;;;;;30.10;19.40;;;;;;;9.18;79.32;93983.69;5090567;28;20507;-34
2022/11/09 01:00:54;;;;;;;31.73;20.25;;;;;;;9.16;79.49;93990.47;5090388;28;20063;-34
2022/11/09 01:03:19;;;;;;;34.65;19.88;;;;;;;9.23;79.72;93985.59;5090446;28;20488;-34
2022/11/09 01:05:45;;;;;;;28.05;18.92;;;;;;;9.23;79.64;93986.34;5090445;28;20059;-34
2022/11/09 01:08:10;;;;;;;29.52;18.60;;;;;;;9.25;79.56;93981.03;5090234;28;20024;-34
2022/11/09 01:10:40;;;;;;;31.40;20.15;;;;;;;9.27;79.48;93983.28;5090717;28;20044;-34
2022/11/09 01:13:05;;;;;;;29.95;20.85;;;;;;;9.18;79.54;93987.19;5090361;28;20565;-34
2022/11/09 01:15:31;;;;;;;37.42;20.20;;;;;;;9.23;79.37;93988.34;5090249;28;20028;-34
2022/11/09 01:17:57;;;;;;;30.85;19.40;;;;;;;9.28;79.58;93980.00;5089969;28;20036;-34
2022/11/09 01:20:22;;;;;;;33.28;19.25;;;;;;;9.16;80.26;93976.69;5090163;28;20031;-34
2022/11/09 01:22:48;;;;;;;36.45;21.98;;;;;;;9.12;80.52;93976.25;5090225;28;20020;-34
2022/11/09 01:25:14;;;;;;;31.10;20.98;;;;;;;9.13;80.75;93977.00;5089953;28;20020;-34
2022/11/09 01:27:39;;;;;;;32.67;21.25;;;;;;;9.15;81.18;93977.97;5090233;28;20552;-34
2022/11/09 01:30:05;;;;;;;35.00;20.52;;;;;;;9.13;81.59;93975.00;5090388;28;20016;-34
2022/11/09 01:32:31;;;;;;;28.63;19.67;;;;;;;9.12;81.97;93981.00;5090333;28;20501;-34
2022/11/09 01:34:57;;;;;;;36.00;20.92;;;;;;;9.04;82.17;93975.41;5090355;28;20016;-34
2022/11/09 01:37:22;;;;;;;30.17;20.60;;;;;;;9.21;82.07;93977.84;5090306;28;20073;-34
2022/11/09 01:39:48;;;;;;;36.35;21.33;;;;;;;9.31;81.75;93983.72;5090342;28;20020;-34
2022/11/09 01:42:14;;;;;;;30.75;19.25;;;;;;;9.39;80.54;93979.81;5090254;28;20454;-34
2022/11/09 01:44:39;;;;;;;32.00;20.25;;;;;;;9.44;79.97;93980.97;5090246;28;20023;-34
2022/11/09 01:47:11;;;;;;;28.83;18.95;;;;;;;9.46;79.57;93983.94;5090119;28;20573;-34
2022/11/09 01:49:55;;;;;;;30.92;20.63;;;;;;;9.33;80.25;93973.66;5090163;28;20035;-34
2022/11/09 01:52:24;;;;;;;30.98;20.58;;;;;;;9.44;80.47;93976.19;5072241;28;20042;-34
2022/11/09 01:54:57;;;;;;;31.52;21.98;;;;;;;9.37;81.07;93976.84;5090169;28;20028;-34
2022/11/09 01:57:35;;;;;;;31.52;20.02;;;;;;;9.34;81.26;93971.63;5090223;28;20032;-34
2022/11/09 02:00:06;;;;;;;40.00;21.80;;;;;;;9.43;80.77;93985.00;5074871;28;20020;-34
2022/11/09 02:02:32;;;;;;;35.67;21.58;;;;;;;9.46;79.55;93976.44;5094063;28;20103;-34
2022/11/09 02:05:06;;;;;;;36.13;22.30;;;;;;;9.41;79.57;93982.78;5075932;28;20391;-34
2022/11/09 02:07:32;;;;;;;33.78;21.00;;;;;;;9.40;79.87;93980.56;5093709;28;20024;-34
2022/11/09 02:10:05;;;;;;;30.83;20.67;;;;;;;9.31;79.88;93969.94;5075916;28;20051;-34
2022/11/09 02:12:32;;;;;;;33.13;21.27;;;;;;;9.36;80.00;93985.63;5093840;28;20529;-34
2022/11/09 02:15:00;;;;;;;42.92;22.27;;;;;;;9.34;79.91;93988.91;5093538;28;20029;-34
2022/11/09 02:17:25;;;;;;;35.15;23.52;;;;;;;9.29;79.96;93980.75;5075376;28;20040;-34
2022/11/09 02:19:51;;;;;;;37.88;23.75;;;;;;;9.39;79.74;93988.06;5093745;28;20408;-34
2022/11/09 02:22:16;;;;;;;36.58;24.88;;;;;;;9.48;79.60;93984.16;5093724;28;20024;-34
2022/11/09 02:24:42;;;;;;;40.83;23.40;;;;;;;9.49;80.17;93985.63;5093638;28;20407;-34
2022/11/09 02:27:07;;;;;;;33.47;20.50;;;;;;;9.39;80.52;93985.31;5093018;28;20073;-34
2022/11/09 02:29:39;;;;;;;32.45;21.48;;;;;;;9.46;80.56;93983.94;5075191;28;20031;-34
2022/11/09 02:32:12;;;;;;;31.92;21.05;;;;;;;9.37;80.78;93987.09;5093542;28;20047;-34
2022/11/09 02:34:37;;;;;;;34.58;21.60;;;;;;;9.37;80.53;93987.09;5075495;28;20549;-34
2022/11/09 02:37:03;;;;;;;32.60;21.45;;;;;;;9.29;80.87;93989.00;5075067;28;20031;-34
2022/11/09 02:39:28;;;;;;;32.90;20.65;;;;;;;9.21;80.95;93985.38;5093186;28;20032;-34
2022/11/09 02:42:12;;;;;;;33.85;22.48;;;;;;;9.13;81.47;93994.28;5075354;28;20372;-34
2022/11/09 02:44:40;;;;;;;32.80;21.25;;;;;;;9.20;81.50;93989.41;5093157;28;20031;-34
2022/11/09 02:47:06;;;;;;;34.58;19.42;;;;;;;9.18;81.88;93992.72;5093046;28;20412;-34
2022/11/09 02:49:31;;;;;;;29.50;19.38;;;;;;;9.14;81.69;93990.25;5093259;28;20031;-34
2022/11/09 02:51:57;;;;;;;32.22;20.35;;;;;;;9.05;82.03;93998.91;5093255;28;20466;-34
2022/11/09 02:54:22;;;;;;;35.40;22.35;;;;;;;9.00;82.14;93994.25;5092789;28;20028;-34
2022/11/09 02:56:50;;;;;;;33.85;22.77;;;;;;;8.95;81.38;93986.81;5092682;28;20028;-34
2022/11/09 02:59:16;;;;;;;36.78;23.38;;;;;;;9.16;80.95;93997.97;5092827;28;20031;-34
2022/11/09 03:01:41;;;;;;;35.20;22.85;;;;;;;9.22;80.38;94000.66;5092590;28;20028;-34
2022/11/09 03:04:07;;;;;;;35.97;20.55;;;;;;;9.18;80.54;94000.22;5092611;28;20020;-34
2022/11/09 03:06:35;;;;;;;33.47;20.73;;;;;;;9.16;80.39;93993.22;5092623;28;20051;-34
2022/11/09 03:09:03;;;;;;;33.67;21.33;;;;;;;9.01;81.00;93992.22;5092501;28;20027;-34
2022/11/09 03:11:28;;;;;;;31.02;20.35;;;;;;;8.98;81.36;93993.28;5092472;28;20028;-34
2022/11/09 03:13:54;;;;;;;38.55;21.70;;;;;;;8.92;81.36;94003.66;5092752;28;20481;-34
2022/11/09 03:16:19;;;;;;;28.05;17.38;;;;;;;8.97;81.26;94002.78;5092284;28;20060;-34
2022/11/09 03:18:45;;;;;;;25.95;17.48;;;;;;;8.98;81.33;93999.53;5092444;28;20510;-34
2022/11/09 03:21:10;;;;;;;28.75;18.88;;;;;;;8.77;81.81;94004.09;5092358;28;20123;-34
2022/11/09 03:23:36;;;;;;;30.33;18.17;;;;;;;8.83;81.69;94007.53;5092231;28;20020;-34
2022/11/09 03:26:01;;;;;;;27.90;18.05;;;;;;;8.60;82.66;94009.09;5091861;28;20024;-34
2022/11/09 03:28:27;;;;;;;35.42;21.13;;;;;;;8.79;82.27;94004.31;5092391;28;20031;-34
2022/11/09 03:30:52;;;;;;;33.35;21.20;;;;;;;8.88;82.04;94006.69;5092200;28;20024;-34
2022/11/09 03:33:18;;;;;;;34.42;22.73;;;;;;;8.90;81.31;93995.88;5092123;28;20654;-34
2022/11/09 03:35:43;;;;;;;37.72;21.95;;;;;;;8.99;80.99;94011.28;5092037;28;20058;-34
2022/11/09 03:38:09;;;;;;;34.67;22.95;;;;;;;8.78;81.64;93997.34;5091805;28;20077;-34
2022/11/09 03:40:34;;;;;;;33.30;22.50;;;;;;;8.98;81.65;94010.56;5091948;28;20030;-34
2022/11/09 03:43:00;;;;;;;43.55;22.60;;;;;;;8.93;82.29;94008.63;5091718;28;20051;-34
2022/11/09 03:45:26;;;;;;;36.80;22.08;;;;;;;8.89;82.37;93991.66;5092195;28;20020;-34
2022/11/09 03:47:55;;;;;;;35.50;23.17;;;;;;;9.06;82.41;94005.91;5091648;28;20449;-34
2022/11/09 03:50:21;;;;;;;32.05;20.25;;;;;;;9.09;82.16;94010.38;5091934;28;20028;-34
2022/11/09 03:52:47;;;;;;;26.83;19.27;;;;;;;9.08;82.18;94002.63;5092017;28;20111;-34
2022/11/09 03:55:13;;;;;;;32.28;21.15;;;;;;;9.09;82.53;94006.88;5091874;28;20020;-34
2022/11/09 03:57:39;;;;;;;36.05;20.02;;;;;;;9.21;82.15;94005.41;5091831;28;20016;-34
2022/11/09 04:00:06;;;;;;;32.10;20.90;;;;;;;9.23;80.88;94004.88;5091740;28;20024;-34
2022/11/09 04:02:32;;;;;;;33.95;20.73;;;;;;;9.17;80.41;94010.50;5091390;28;20032;-34
2022/11/09 04:04:57;;;;;;;32.50;20.33;;;;;;;9.21;80.34;94005.41;5091778;28;20024;-34
2022/11/09 04:07:23;;;;;;;33.05;21.40;;;;;;;9.23;80.61;94007.63;5091696;28;20434;-34
2022/11/09 04:09:48;;;;;;;35.00;21.42;;;;;;;9.28;80.57;94009.56;5091345;28;20496;-34
2022/11/09 04:12:13;;;;;;;33.00;21.00;;;;;;;9.04;81.76;94013.22;5091215;28;20020;-34
2022/11/09 04:14:39;;;;;;;33.45;21.52;;;;;;;9.05;82.35;94009.91;5091553;28;20024;-34
2022/11/09 04:17:04;;;;;;;31.52;21.15;;;;;;;9.18;82.07;94014.00;5091107;28;20032;-34
2022/11/09 04:19:30;;;;;;;31.27;21.08;;;;;;;9.26;81.66;94009.34;5091405;28;20484;-34
2022/11/09 04:21:55;;;;;;;36.75;21.95;;;;;;;9.21;82.04;94010.91;5090761;28;20445;-34
2022/11/09 04:24:21;;;;;;;35.05;21.52;;;;;;;9.21;82.45;94007.41;5091239;28;20046;-34
2022/11/09 04:26:47;;;;;;;34.55;21.23;;;;;;;9.22;82.27;94008.91;5091044;28;20026;-34
2022/11/09 04:29:12;;;;;;;33.10;20.65;;;;;;;9.27;nan;94008.09;5090930;28;20519;-34
2022/11/09 04:31:38;;;;;;;28.90;20.33;;;;;;;9.32;81.47;94007.22;5091210;28;20027;-34
2022/11/09 04:34:03;;;;;;;32.78;20.55;;;;;;;9.31;81.43;94011.28;5091188;28;20015;-34
2022/11/09 04:36:29;;;;;;;27.15;19.27;;;;;;;9.32;81.16;94004.47;5091008;28;20503;-34
2022/11/09 04:38:54;;;;;;;29.02;20.60;;;;;;;9.18;81.35;94008.47;5090761;28;20020;-34
2022/11/09 04:41:19;;;;;;;33.40;20.23;;;;;;;9.21;81.57;94008.16;5091110;28;20484;-34
2022/11/09 04:43:45;;;;;;;30.42;20.65;;;;;;;9.25;81.51;94005.13;5090835;28;20557;-34
2022/11/09 04:46:10;;;;;;;29.27;19.88;;;;;;;9.25;81.44;94010.63;5091228;28;20526;-34
2022/11/09 04:48:36;;;;;;;28.52;19.38;;;;;;;9.30;81.38;94007.00;5090692;28;20463;-34
2022/11/09 04:51:04;;;;;;;30.10;20.20;;;;;;;9.32;81.16;94012.75;5090940;28;20050;-34
2022/11/09 04:53:29;;;;;;;26.60;18.63;;;;;;;9.41;80.56;94007.56;5090890;28;20136;-34
2022/11/09 04:55:55;;;;;;;30.10;19.05;;;;;;;9.31;80.93;94012.03;5072510;28;20488;-34
2022/11/09 04:58:21;;;;;;;26.75;18.50;;;;;;;9.26;81.08;94012.84;5090401;28;20488;-34
2022/11/09 05:00:46;;;;;;;55.20;29.33;;;;;;;9.29;81.54;94011.06;5090763;28;20012;-34
2022/11/09 05:03:12;;;;;;;36.92;24.10;;;;;;;9.30;81.34;94018.03;5090766;28;20081;-34
2022/11/09 05:05:38;;;;;;;30.15;19.23;;;;;;;9.21;81.64;94016.44;5090628;28;20023;-34
2022/11/09 05:08:05;;;;;;;31.65;18.08;;;;;;;9.13;82.31;94018.31;5090768;28;20012;-34
2022/11/09 05:10:31;;;;;;;26.50;19.10;;;;;;;9.25;82.10;94024.41;5090465;28;20057;-34
2022/11/09 05:12:58;;;;;;;27.85;19.42;;;;;;;9.20;82.58;94028.72;5090329;28;20031;-34
2022/11/09 05:15:23;;;;;;;49.33;26.05;;;;;;;9.18;83.16;94027.78;5090421;28;20568;-34
2022/11/09 05:17:49;;;;;;;44.67;31.35;;;;;;;9.27;83.19;94027.38;5089991;28;20036;-34
2022/11/09 05:20:15;;;;;;;37.25;24.35;;;;;;;9.39;82.51;94025.91;5090260;28;20020;-34
2022/11/09 05:25:24;;;;;;;48.58;28.88;;;;;;;9.43;82.00;94029.09;5090318;28;20470;-34
2022/11/09 05:27:50;;;;;;;35.53;24.33;;;;;;;9.47;81.45;94026.75;5090453;28;20020;-34
2022/11/09 05:30:16;;;;;;;52.38;30.98;;;;;;;9.47;81.01;94032.28;5090340;28;20103;-34
2022/11/09 05:32:41;;;;;;;36.05;25.55;;;;;;;9.50;81.24;94028.47;5090814;28;20497;-34
2022/11/09 05:35:07;;;;;;;38.08;25.80;;;;;;;9.51;81.31;94030.69;5094485;28;20032;-34
2022/11/09 05:37:32;;;;;;;37.75;26.48;;;;;;;9.49;81.53;94030.47;5094440;28;20488;-34
2022/11/09 05:39:58;;;;;;;36.00;23.95;;;;;;;9.52;nan;94036.94;5094571;28;20024;-34
2022/11/09 05:42:24;;;;;;;38.35;25.58;;;;;;;9.60;81.84;94040.56;5094166;28;20050;-34
2022/11/09 05:44:49;;;;;;;33.03;23.48;;;;;;;9.62;81.98;94033.25;5094123;28;20077;-34
2022/11/09 05:47:15;;;;;;;42.35;25.08;;;;;;;9.63;82.30;94040.28;5094183;28;20012;-34
2022/11/09 05:49:40;;;;;;;38.33;25.70;;;;;;;9.67;82.22;94037.19;5094301;28;20032;-34
2022/11/09 05:52:05;;;;;;;39.47;25.08;;;;;;;9.74;82.20;94042.09;5075978;28;20023;-34
2022/11/09 05:54:31;;;;;;;41.28;24.85;;;;;;;9.80;82.30;94042.72;5093920;28;20086;-34
2022/11/09 05:56:56;;;;;;;43.58;27.27;;;;;;;9.86;82.07;94048.88;5094168;28;20165;-34
2022/11/09 05:59:22;;;;;;;54.90;33.42;;;;;;;9.85;82.22;94044.63;5093934;28;20028;-34
2022/11/09 06:01:47;;;;;;;71.60;43.47;;;;;;;9.85;82.20;94052.91;5094072;28;20023;-34
2022/11/09 06:04:13;;;;;;;66.47;34.95;;;;;;;9.93;81.30;94057.25;5094019;28;20442;-34
2022/11/09 06:06:38;;;;;;;44.53;30.15;;;;;;;9.97;81.47;94059.69;5094018;28;20012;-34
2022/11/09 06:09:04;;;;;;;42.47;28.65;;;;;;;10.02;81.10;94060.88;5093996;28;20024;-34
2022/11/09 06:11:29;;;;;;;46.67;30.55;;;;;;;9.98;81.23;94063.94;5093670;28;20042;-34
2022/11/09 06:13:55;;;;;;;51.38;32.00;;;;;;;10.03;81.53;94060.31;5093862;28;20024;-34
2022/11/09 06:16:20;;;;;;;42.67;29.52;;;;;;;9.95;81.75;94062.25;5093136;28;20032;-34
2022/11/09 06:18:46;;;;;;;47.70;29.90;;;;;;;10.03;81.86;94063.09;5093829;28;20028;-34
2022/11/09 06:21:11;;;;;;;55.63;28.05;;;;;;;10.11;81.88;94063.25;5093785;28;20031;-34
2022/11/09 06:23:37;;;;;;;38.95;25.15;;;;;;;10.14;82.31;94062.91;5093493;28;20525;-34
2022/11/09 06:26:08;;;;;;;45.00;27.83;;;;;;;10.26;82.22;94063.44;5093216;28;20035;-34
2022/11/09 06:28:35;;;;;;;45.38;30.50;;;;;;;10.31;82.05;94068.13;5093319;28;20031;-34
2022/11/09 06:31:02;;;;;;;37.92;25.52;;;;;;;10.43;81.99;94070.13;5075343;28;20719;-34
2022/11/09 06:33:29;;;;;;;35.70;23.13;;;;;;;10.52;81.55;94061.41;5093613;28;20051;-34
2022/11/09 06:35:56;;;;;;;33.83;23.33;;;;;;;10.54;81.18;94066.38;5093215;28;20099;-34
2022/11/09 06:38:21;;;;;;;32.65;22.15;;;;;;;10.63;81.19;94072.19;5093242;28;20404;-34
2022/11/09 06:40:50;;;;;;;33.00;23.17;;;;;;;10.76;80.29;94068.69;5093371;28;20032;-34
2022/11/09 06:43:16;;;;;;;37.42;23.17;;;;;;;10.79;80.43;94066.84;5093047;28;20024;-34
2022/11/09 06:45:41;;;;;;;38.63;24.27;;;;;;;10.76;79.98;94065.16;5092494;28;20024;-34
2022/11/09 06:48:08;;;;;;;41.90;26.25;;;;;;;10.81;79.56;94061.53;5074781;28;20059;-34
2022/11/09 06:50:34;;;;;;;39.40;25.52;;;;;;;10.92;79.23;94075.84;5092908;28;20051;-34
2022/11/09 06:53:02;;;;;;;35.78;22.65;;;;;;;11.02;78.99;94070.63;5092808;28;20113;-34
2022/11/09 06:55:28;;;;;;;33.00;21.77;;;;;;;11.11;78.71;94065.34;5093145;28;20073;-34
2022/11/09 06:57:54;;;;;;;35.13;23.65;;;;;;;11.18;78.69;94070.22;5092709;28;20099;-34
2022/11/09 07:00:20;;;;;;;40.05;23.25;;;;;;;11.27;78.31;94069.78;5092625;28;20074;-34
2022/11/09 07:02:45;;;;;;;36.70;24.88;;;;;;;11.35;78.37;94069.81;5092706;28;20072;-34
2022/11/09 07:05:11;;;;;;;38.58;26.30;;;;;;;11.45;78.49;94076.38;5092664;28;20515;-34
2022/11/09 07:07:36;;;;;;;47.72;28.73;;;;;;;11.54;78.60;94069.66;5092850;28;20020;-34
2022/11/09 07:10:02;;;;;;;66.65;36.00;;;;;;;11.51;77.56;94057.63;5092580;28;20723;-34
2022/11/09 07:12:27;;;;;;;57.55;32.28;;;;;;;11.54;76.98;94062.09;5092787;28;20028;-34
2022/11/09 07:14:53;;;;;;;46.75;27.30;;;;;;;11.72;77.08;94071.47;5092749;28;20027;-34
2022/11/09 07:17:18;;;;;;;40.30;26.75;;;;;;;11.81;77.49;94074.50;5092178;28;20075;-34
2022/11/09 07:19:44;;;;;;;48.92;30.25;;;;;;;11.92;77.41;94076.25;5092371;28;20031;-34
2022/11/09 07:22:10;;;;;;;41.05;25.75;;;;;;;12.01;77.28;94062.66;5092605;28;20054;-34
2022/11/09 07:24:35;;;;;;;44.42;27.45;;;;;;;12.19;76.67;94066.47;5092257;28;20028;-34
2022/11/09 07:27:00;;;;;;;47.85;27.20;;;;;;;12.34;76.33;94065.81;5091961;28;20016;-34
2022/11/09 07:29:26;;;;;;;42.47;27.30;;;;;;;12.43;75.61;94066.03;5092153;28;20058;-34
2022/11/09 07:31:51;;;;;;;39.70;26.13;;;;;;;12.56;74.71;94068.69;5092104;28;20032;-34
2022/11/09 07:34:17;;;;;;;45.80;28.25;;;;;;;12.68;74.47;94069.13;5092118;28;20077;-34
2022/11/09 07:36:43;;;;;;;48.63;30.20;;;;;;;12.76;74.27;94069.88;5091870;28;20020;-34
2022/11/09 07:39:08;;;;;;;41.13;26.42;;;;;;;12.68;73.35;94042.16;5092330;28;20020;-34
2022/11/09 07:41:33;;;;;;;40.75;27.00;;;;;;;13.00;72.84;94065.91;5092348;28;20491;-34
2022/11/09 07:43:59;;;;;;;42.78;25.98;;;;;;;13.09;72.22;94052.28;5091938;28;20028;-34
2022/11/09 07:46:25;;;;;;;38.10;26.35;;;;;;;13.25;71.93;94055.84;5092048;28;20035;-34
2022/11/09 07:48:50;;;;;;;41.08;26.88;;;;;;;13.37;71.34;94068.81;5092019;28;20041;-34
2022/11/09 07:51:15;;;;;;;39.70;26.80;;;;;;;13.52;69.57;94057.72;5091774;28;20438;-34
2022/11/09 07:53:41;;;;;;;39.75;26.15;;;;;;;13.64;69.13;94063.66;5091972;28;20024;-34
2022/11/09 07:56:07;;;;;;;41.45;25.55;;;;;;;13.78;68.79;94056.63;5090742;28;20045;-34
2022/11/09 07:58:34;;;;;;;35.75;24.45;;;;;;;14.00;68.63;94060.69;5091336;28;20024;-34
2022/11/09 08:01:00;;;;;;;35.50;22.25;;;;;;;14.12;67.08;94059.75;5091742;28;20101;-34
2022/11/09 08:03:25;;;;;;;36.85;24.17;;;;;;;14.20;66.25;94059.75;5091501;28;20491;-35
2022/11/09 08:05:51;;;;;;;42.70;24.52;;;;;;;14.13;65.35;94041.06;5091754;28;20081;-34
2022/11/09 08:08:16;;;;;;;36.03;23.80;;;;;;;14.29;66.27;94050.88;5091600;28;20020;-34
2022/11/09 08:10:44;;;;;;;36.22;25.33;;;;;;;14.26;65.52;94057.53;5091319;28;20032;-34
2022/11/09 08:13:12;;;;;;;32.35;22.02;;;;;;;14.28;63.63;94052.88;5091600;28;20024;-34
2022/11/09 08:15:39;;;;;;;29.17;17.38;;;;;;;14.08;63.02;94058.66;5091676;28;20027;-34
2022/11/09 08:18:07;;;;;;;26.92;17.42;;;;;;;14.03;62.60;94043.69;5090996;28;20078;-34
2022/11/09 08:20:33;;;;;;;31.27;18.83;;;;;;;13.90;62.32;94060.53;5091122;28;20110;-34
2022/11/09 08:22:59;;;;;;;29.67;18.95;;;;;;;13.90;61.92;94054.97;5091300;28;20112;-34
2022/11/09 08:25:24;;;;;;;26.33;17.92;;;;;;;13.88;62.47;94059.59;5090764;28;20020;-34
2022/11/09 08:27:50;;;;;;;27.15;17.80;;;;;;;14.03;61.92;94056.81;5091059;28;20016;-34
2022/11/09 08:30:19;;;;;;;24.55;17.17;;;;;;;14.16;61.61;94059.41;5090808;28;20101;-34
2022/11/09 08:32:46;;;;;;;25.60;18.27;;;;;;;14.40;62.02;94056.78;5091191;28;20110;-34
2022/11/09 08:35:16;;;;;;;23.70;16.58;;;;;;;14.69;60.15;94060.03;5091020;28;20051;-34
2022/11/09 08:37:45;;;;;;;29.50;18.73;;;;;;;14.82;60.10;94056.28;5090774;28;20077;-34
2022/11/09 08:40:11;;;;;;;25.70;16.25;;;;;;;14.92;59.59;94057.88;5090711;28;20073;-34
2022/11/09 08:44:58;;;;;;;24.52;16.15;;;;;;;15.73;57.08;94051.69;4944578;27;5193095;-34
2022/11/09 08:47:24;;;;;;;30.00;18.35;;;;;;;16.76;55.86;94053.94;5108258;28;20047;-34
2022/11/09 08:49:49;;;;;;;21.42;15.90;;;;;;;17.93;50.56;94061.84;5108011;28;20039;-34
2022/11/09 08:52:16;;;;;;;26.50;17.20;;;;;;;17.58;50.01;94054.19;5107879;28;20028;-35
2022/11/09 08:54:41;;;;;;;19.83;14.88;;;;;;;17.96;49.57;94051.56;5107959;28;20651;-34
2022/11/09 08:57:07;;;;;;;21.00;14.43;;;;;;;18.39;48.36;94052.69;5108228;28;20035;-35
2022/11/09 08:59:32;;;;;;;24.17;16.45;;;;;;;19.45;47.01;94049.34;5107833;28;20102;-35
2022/11/09 09:01:58;;;;;;;19.55;14.93;;;;;;;19.53;44.52;94049.19;5108067;28;20028;-35
2022/11/09 09:04:23;;;;;;;22.02;14.82;;;;;;;19.84;45.04;94049.25;5107816;28;20066;-34
2022/11/09 09:06:49;;;;;;;21.95;15.40;;;;;;;19.85;43.76;94056.31;5107714;28;20460;-35
2022/11/09 09:09:14;;;;;;;22.10;14.23;;;;;;;20.10;42.13;94048.22;5107587;28;20024;-34
2022/11/09 09:11:40;;;;;;;23.15;14.77;;;;;;;20.24;42.61;94049.97;5107927;28;20085;-34
2022/11/09 09:14:05;;;;;;;18.98;13.38;;;;;;;20.74;40.78;94049.81;5107765;28;20118;-35
2022/11/09 09:16:31;;;;;;;19.48;14.07;;;;;;;20.75;40.95;94047.72;5107465;28;20069;-35
2022/11/09 09:18:56;;;;;;;21.27;14.45;;;;;;;21.22;41.36;94043.84;5107704;28;20097;-34
2022/11/09 09:21:22;;;;;;;20.48;14.65;;;;;;;20.67;40.97;94038.78;5107364;28;20031;-34
2022/11/09 09:23:48;;;;;;;18.55;13.90;;;;;;;20.65;41.67;94039.38;5107532;28;20395;-35
2022/11/09 09:26:14;;;;;;;17.73;13.68;;;;;;;20.88;41.09;94038.75;5106795;28;20541;-34
2022/11/09 09:28:39;;;;;;;24.33;15.68;;;;;;;21.40;39.67;94044.97;5107223;28;20020;-34
2022/11/09 09:31:05;;;;;;;20.63;14.27;;;;;;;21.68;39.28;94043.22;5107227;28;20020;-34
2022/11/09 09:33:31;;;;;;;22.95;14.85;;;;;;;21.41;38.55;94038.03;5107265;28;20020;-35
2022/11/09 09:35:57;;;;;;;22.38;15.27;;;;;;;21.59;39.62;94046.88;5107358;28;20458;-35
2022/11/09 09:38:26;;;;;;;18.25;13.23;;;;;;;21.59;38.60;94032.81;5107303;28;20124;-34
2022/11/09 09:40:58;;;;;;;20.52;13.75;;;;;;;21.35;39.06;94036.91;5088798;28;20457;-35
2022/11/09 09:43:36;;;;;;;19.13;14.63;;;;;;;21.21;39.30;94025.50;5106911;28;20129;-35
2022/11/09 09:46:05;;;;;;;19.50;13.60;;;;;;;21.40;38.49;94021.75;5088898;28;20031;-35
2022/11/09 09:48:38;;;;;;;;;;;;;;;21.36;38.87;94027.13;5107676;28;20058;-34
2022/11/09 09:51:22;;;;;;;18.38;14.02;;;;;;;21.87;38.37;94020.56;5088958;28;19958;-35
2022/11/09 09:53:53;;;;;;;16.70;13.70;;;;;;;22.12;37.31;94019.94;5106763;28;20032;-35
2022/11/09 09:56:22;;;;;;;16.63;12.55;;;;;;;21.77;36.49;94006.56;5093582;28;20024;-35
2022/11/09 09:59:12;;;;;;;16.63;11.50;;;;;;;22.03;36.11;94015.91;5075353;28;20028;-34
2022/11/09 10:01:40;;;;;;;17.98;12.82;;;;;;;22.18;37.00;94006.97;5093295;28;20031;-34
2022/11/09 10:04:18;;;;;;;17.00;13.85;;;;;;;21.93;36.88;94000.50;5074828;28;20028;-35
2022/11/09 10:06:57;;;;;;;18.73;12.63;;;;;;;21.77;36.82;94006.56;5074979;28;20027;-35
2022/11/09 10:09:50;;;;;;;20.65;14.00;;;;;;;20.89;39.72;94001.69;5093002;28;20103;-34
2022/11/09 10:12:25;;;;;;;17.60;13.68;;;;;;;21.59;38.38;93996.28;5074636;28;20063;-34
2022/11/09 10:15:11;;;;;;;14.70;11.90;;;;;;;22.45;36.93;93992.38;5075151;28;20107;-35
2022/11/09 10:17:55;;;;;;;17.35;12.02;;;;;;;23.00;34.63;93993.47;5092691;28;20077;-35
2022/11/09 10:20:44;;;;;;;18.35;11.73;;;;;;;23.31;33.72;93982.53;5092539;28;20684;-35
2022/11/09 10:23:35;;;;;;;14.35;11.60;;;;;;;23.32;33.97;93978.38;5074917;28;20059;-35
2022/11/09 10:26:11;;;;;;;16.42;11.50;;;;;;;23.43;33.61;93988.16;5092532;28;20039;-35
2022/11/09 10:28:39;;;;;;;13.60;12.15;;;;;;;23.32;33.73;93979.09;5074802;28;20103;-35
2022/11/09 10:31:13;;;;;;;17.10;11.63;;;;;;;22.59;34.25;93982.72;5074776;28;20436;-35
2022/11/09 10:33:38;;;;;;;17.30;12.60;;;;;;;22.88;34.26;93975.88;5074472;28;20492;-34
2022/11/09 10:36:20;;;;;;;15.18;11.15;;;;;;;23.14;33.12;93974.53;5092279;28;20028;-35
2022/11/09 10:38:48;;;;;;;17.08;11.93;;;;;;;23.43;33.74;93957.16;5092405;28;20047;-35
2022/11/09 10:41:26;;;;;;;21.45;14.50;;;;;;;24.39;32.94;93967.91;5074571;28;20024;-35
2022/11/09 10:43:52;;;;;;;16.42;13.07;;;;;;;24.53;32.46;93962.28;5092174;28;20122;-35
2022/11/09 10:46:17;;;;;;;15.95;11.77;;;;;;;24.91;31.46;93966.28;5092291;28;20412;-35
2022/11/09 10:48:43;;;;;;;15.43;10.20;;;;;;;25.16;29.42;93954.81;5092430;28;20085;-35
2022/11/09 10:51:32;;;;;;;15.00;10.50;;;;;;;24.93;30.02;93958.66;5092199;28;20024;-35
2022/11/09 10:54:30;;;;;;;12.65;10.02;;;;;;;24.92;30.31;93957.19;5092139;28;20059;-35
2022/11/09 10:57:14;;;;;;;16.10;9.98;;;;;;;24.39;31.62;93942.53;5092321;28;20031;-35
2022/11/09 10:59:44;;;;;;;14.32;10.00;;;;;;;24.49;30.84;93928.19;5074244;28;20032;-35
2022/11/09 11:02:25;;;;;;;12.85;9.65;;;;;;;24.19;31.12;93952.06;5091902;28;20055;-35
2022/11/09 11:05:05;;;;;;;12.25;9.68;;;;;;;24.18;31.16;93942.13;5092054;28;20059;-35
2022/11/09 11:07:32;;;;;;;12.90;10.23;;;;;;;24.57;30.99;93942.72;5091134;28;20447;-35
2022/11/09 11:10:14;;;;;;;13.32;9.80;;;;;;;23.66;31.37;93937.25;5092068;28;20120;-34
2022/11/09 11:12:43;;;;;;;12.05;9.68;;;;;;;23.25;31.73;93931.50;5091851;28;20024;-34
2022/11/09 11:15:22;;;;;;;11.40;9.63;;;;;;;23.13;31.71;93934.38;5073931;28;20085;-35
2022/11/09 11:17:48;;;;;;;11.48;8.88;;;;;;;23.38;31.24;93932.91;5086393;28;20500;-34
2022/11/09 11:20:34;;;;;;;9.05;7.97;;;;;;;23.17;31.65;93939.50;5073450;28;20024;-34
2022/11/09 11:23:12;;;;;;;12.85;8.18;;;;;;;22.76;32.72;93928.06;5091761;28;20032;-34
2022/11/09 11:25:52;;;;;;;9.90;8.77;;;;;;;22.16;33.46;93930.16;5091390;28;20031;-34
2022/11/09 11:28:46;;;;;;;10.48;9.02;;;;;;;21.90;34.14;93932.16;5091363;28;20028;-34
2022/11/09 11:31:19;;;;;;;11.70;8.57;;;;;;;21.98;34.15;93915.78;5091411;28;20020;-34